Time;durP1;ratioP1;P1;durP2;ratioP2;P2;SDS_P1;SDS_P2;PMS_P1;PMS_P2;Temp;Humidity;BMP_temperature;BMP_pressure;BME280_temperature;BME280_humidity;BME280_pressure;Samples;Min_cycle;Max_cycle;Signal;HPM_P1;HPM_P2
2022/09/21 00:00:37;;;;;;;245.05;17.92;;;4.90;99.90;;;;;;5072918;28;20386;-72
2022/09/21 00:03:03;;;;;;;213.95;14.15;;;4.60;99.90;;;;;;5074075;28;20047;-72
2022/09/21 00:05:28;;;;;;;15.15;3.83;;;4.70;99.90;;;;;;5074029;28;20131;-72
2022/09/21 00:07:54;;;;;;;7.80;5.00;;;4.70;99.90;;;;;;5058954;28;20056;-72
2022/09/21 00:10:20;;;;;;;4.55;4.15;;;4.90;99.90;;;;;;5054083;28;20028;-72
2022/09/21 00:12:47;;;;;;;4.18;3.88;;;4.90;99.90;;;;;;5069532;28;20027;-72
2022/09/21 00:15:18;;;;;;;3.75;3.45;;;4.90;99.90;;;;;;5073938;28;20070;-72
2022/09/21 00:17:46;;;;;;;4.30;3.90;;;5.10;99.90;;;;;;5073690;28;20058;-73
2022/09/21 00:20:13;;;;;;;4.88;3.92;;;5.20;99.90;;;;;;5073843;28;20111;-74
2022/09/21 00:22:40;;;;;;;4.20;3.88;;;5.10;99.90;;;;;;5073832;28;20028;-74
2022/09/21 00:25:07;;;;;;;3.92;3.63;;;5.10;99.90;;;;;;5073593;28;20050;-73
2022/09/21 00:27:32;;;;;;;4.70;4.10;;;5.10;99.90;;;;;;5056695;28;20047;-72
2022/09/21 00:30:02;;;;;;;7.78;5.00;;;5.00;99.90;;;;;;5052436;28;20434;-73
2022/09/21 00:32:33;;;;;;;6.60;4.30;;;5.00;99.90;;;;;;5053540;28;20019;-73
2022/09/21 00:34:59;;;;;;;4.35;3.95;;;4.90;99.90;;;;;;5053414;28;20040;-73
2022/09/21 00:37:26;;;;;;;4.38;3.08;;;4.90;99.90;;;;;;5057914;28;20062;-72
2022/09/21 00:39:52;;;;;;;3.50;3.20;;;4.90;99.90;;;;;;5073526;28;20072;-71
2022/09/21 00:42:21;;;;;;;3.88;3.15;;;4.80;99.90;;;;;;5073358;28;20424;-72
2022/09/21 00:44:47;;;;;;;5.07;3.65;;;4.90;99.90;;;;;;5073225;28;20021;-72
2022/09/21 00:47:43;;;;;;;4.72;3.60;;;4.80;99.90;;;;;;5073079;28;20074;-73
2022/09/21 00:50:12;;;;;;;4.32;3.33;;;4.90;99.90;;;;;;5043614;28;20391;-72
2022/09/21 00:52:43;;;;;;;6.53;4.25;;;5.10;99.90;;;;;;5053294;28;20025;-73
2022/09/21 00:55:18;;;;;;;17.33;5.43;;;5.30;99.90;;;;;;5066509;28;20032;-72
2022/09/21 00:57:47;;;;;;;8.32;4.45;;;5.40;99.90;;;;;;5065189;28;20115;-72
2022/09/21 01:00:13;;;;;;;22.40;6.05;;;5.40;99.90;;;;;;5058292;28;20035;-73
2022/09/21 01:02:39;;;;;;;23.73;6.00;;;5.50;99.90;;;;;;5060454;28;20029;-71
2022/09/21 01:05:07;;;;;;;16.35;6.20;;;5.50;99.90;;;;;;5056444;28;20025;-72
2022/09/21 01:07:38;;;;;;;9.75;5.70;;;5.50;99.90;;;;;;5052961;28;20033;-71
2022/09/21 01:10:08;;;;;;;15.95;6.03;;;5.60;99.90;;;;;;5072144;28;20107;-73
2022/09/21 01:13:00;;;;;;;78.70;9.80;;;5.50;99.90;;;;;;5070562;28;20078;-72
2022/09/21 01:15:28;;;;;;;129.70;9.93;;;5.10;99.90;;;;;;5072810;28;20482;-72
2022/09/21 01:18:12;;;;;;;76.60;11.90;;;5.00;99.90;;;;;;5069194;28;20152;-72
2022/09/21 01:20:50;;;;;;;95.57;7.97;;;5.00;99.90;;;;;;5052739;28;20540;-73
2022/09/21 01:23:53;;;;;;;60.65;12.93;;;4.80;99.90;;;;;;5052570;28;20033;-72
2022/09/21 01:27:04;;;;;;;41.22;11.13;;;4.60;99.90;;;;;;5052562;28;20021;-72
2022/09/21 01:29:31;;;;;;;120.20;10.55;;;4.50;99.90;;;;;;5052576;28;20036;-72
2022/09/21 01:32:19;;;;;;;49.88;9.20;;;4.40;99.90;;;;;;5052427;28;20044;-73
2022/09/21 01:35:00;;;;;;;18.45;6.50;;;4.40;99.90;;;;;;5052482;28;20024;-73
2022/09/21 01:37:40;;;;;;;158.07;13.07;;;4.50;99.90;;;;;;5052344;28;20043;-71
2022/09/21 01:40:29;;;;;;;19.75;7.95;;;4.40;99.90;;;;;;5052353;28;20105;-73
2022/09/21 01:42:57;;;;;;;51.13;10.80;;;4.20;99.90;;;;;;5052483;28;20022;-73
2022/09/21 01:45:29;;;;;;;36.95;11.65;;;4.10;99.90;;;;;;5054430;28;20021;-73
2022/09/21 01:47:56;;;;;;;28.48;5.90;;;4.30;99.90;;;;;;5071794;28;20025;-73
2022/09/21 01:50:23;;;;;;;301.10;16.52;;;4.40;99.90;;;;;;5072042;28;20150;-73
2022/09/21 01:53:01;;;;;;;344.80;21.65;;;4.50;99.90;;;;;;5072151;28;20017;-72
2022/09/21 01:55:45;;;;;;;121.05;15.35;;;4.70;99.90;;;;;;5072105;28;20375;-72
2022/09/21 01:58:19;;;;;;;340.52;16.52;;;4.80;99.90;;;;;;5071819;28;20053;-73
2022/09/21 02:00:47;;;;;;;176.18;18.00;;;4.80;99.90;;;;;;5063489;28;20025;-72
2022/09/21 02:03:20;;;;;;;533.15;20.80;;;4.60;99.90;;;;;;5051847;28;20371;-73
2022/09/21 02:05:46;;;;;;;474.55;24.67;;;4.60;99.90;;;;;;5067034;28;20482;-71
2022/09/21 02:08:12;;;;;;;232.98;17.13;;;4.60;99.90;;;;;;5054298;28;20027;-72
2022/09/21 02:10:49;;;;;;;231.40;15.05;;;4.70;99.90;;;;;;5051889;28;20021;-72
2022/09/21 02:13:17;;;;;;;167.23;13.20;;;4.80;99.90;;;;;;5070036;28;20111;-73
2022/09/21 02:15:46;;;;;;;206.35;12.98;;;4.90;99.90;;;;;;5071701;28;20151;-73
2022/09/21 02:18:30;;;;;;;327.60;18.17;;;4.80;99.90;;;;;;5071518;28;20028;-73
2022/09/21 02:20:58;;;;;;;221.02;11.35;;;4.70;99.90;;;;;;5071820;28;20111;-73
2022/09/21 02:23:42;;;;;;;338.30;16.98;;;4.80;99.90;;;;;;5062768;28;20028;-73
2022/09/21 02:26:21;;;;;;;392.33;17.15;;;4.80;99.90;;;;;;5063789;28;20040;-74
2022/09/21 02:28:52;;;;;;;231.57;13.70;;;5.00;99.90;;;;;;5050208;28;20111;-72
2022/09/21 02:31:30;;;;;;;171.13;10.05;;;4.90;99.90;;;;;;5059087;28;20016;-73
2022/09/21 02:34:23;;;;;;;116.32;8.75;;;5.00;99.90;;;;;;5058092;28;20075;-73
2022/09/21 02:37:04;;;;;;;48.03;5.80;;;5.10;99.90;;;;;;5071458;28;20151;-72
2022/09/21 02:39:42;;;;;;;44.88;5.95;;;5.20;99.90;;;;;;5071534;28;20019;-72
2022/09/21 02:42:15;;;;;;;89.03;7.43;;;5.20;99.90;;;;;;5071570;28;20115;-73
2022/09/21 02:44:46;;;;;;;88.88;8.65;;;5.30;99.90;;;;;;5070002;28;20028;-73
2022/09/21 02:47:24;;;;;;;92.22;7.15;;;5.20;99.90;;;;;;5071292;28;20051;-73
2022/09/21 02:49:58;;;;;;;71.40;8.45;;;5.30;99.90;;;;;;5070172;28;20028;-73
2022/09/21 02:52:26;;;;;;;204.80;18.35;;;5.40;99.90;;;;;;5071546;28;20021;-73
2022/09/21 02:54:54;;;;;;;144.27;29.55;;;5.20;99.90;;;;;;5071317;28;20104;-74
2022/09/21 02:57:21;;;;;;;196.13;11.30;;;5.20;99.90;;;;;;5063035;28;20025;-73
2022/09/21 02:59:47;;;;;;;84.88;8.90;;;5.10;99.90;;;;;;5067719;28;20064;-73
2022/09/21 03:02:13;;;;;;;163.40;9.25;;;5.30;99.90;;;;;;5063668;28;20052;-73
2022/09/21 03:04:42;;;;;;;211.55;14.13;;;5.20;99.90;;;;;;5074814;28;20029;-73
2022/09/21 03:07:08;;;;;;;130.27;11.10;;;5.20;99.90;;;;;;5075171;28;20017;-73
2022/09/21 03:09:34;;;;;;;161.43;8.52;;;5.20;99.90;;;;;;5059889;28;20095;-73
2022/09/21 03:11:59;;;;;;;115.75;7.32;;;5.10;99.90;;;;;;5056023;28;20376;-74
2022/09/21 03:14:25;;;;;;;223.10;10.05;;;5.20;99.90;;;;;;5068757;28;20413;-74
2022/09/21 03:16:52;;;;;;;214.70;15.90;;;5.30;99.90;;;;;;5074860;28;20090;-72
2022/09/21 03:19:17;;;;;;;176.65;10.18;;;5.40;99.90;;;;;;5074981;28;20503;-73
2022/09/21 03:21:43;;;;;;;62.25;6.28;;;5.30;99.90;;;;;;5074975;28;20028;-74
2022/09/21 03:24:08;;;;;;;47.45;6.20;;;5.40;99.90;;;;;;5074688;28;20039;-74
2022/09/21 03:26:35;;;;;;;162.52;10.95;;;5.60;99.90;;;;;;5065417;28;20025;-74
2022/09/21 03:29:02;;;;;;;210.98;10.80;;;5.50;99.90;;;;;;5069475;28;20055;-74
2022/09/21 03:31:28;;;;;;;105.25;7.70;;;5.50;99.90;;;;;;5065347;28;20028;-73
2022/09/21 03:33:53;;;;;;;103.80;7.35;;;5.40;99.90;;;;;;5069598;28;20025;-72
2022/09/21 03:36:19;;;;;;;108.57;6.68;;;5.20;99.90;;;;;;5074731;28;20105;-72
2022/09/21 03:38:45;;;;;;;213.93;10.70;;;5.30;99.90;;;;;;5059433;28;20512;-73
2022/09/21 03:41:12;;;;;;;169.27;11.25;;;5.30;99.90;;;;;;5062641;28;20035;-74
2022/09/21 03:43:37;;;;;;;292.10;11.90;;;5.40;99.90;;;;;;5074425;28;20013;-74
2022/09/21 03:46:03;;;;;;;212.48;14.50;;;5.30;99.90;;;;;;5073202;28;20029;-74
2022/09/21 03:48:31;;;;;;;237.85;12.48;;;5.20;99.90;;;;;;5074191;28;20031;-74
2022/09/21 03:50:57;;;;;;;139.48;8.00;;;5.20;99.90;;;;;;5066022;28;20021;-74
2022/09/21 03:53:22;;;;;;;112.03;8.90;;;5.30;99.90;;;;;;5054417;28;20021;-74
2022/09/21 03:55:48;;;;;;;98.47;7.15;;;5.30;99.90;;;;;;5062679;28;20037;-74
2022/09/21 03:58:14;;;;;;;95.28;9.50;;;5.40;99.90;;;;;;5060609;28;20021;-75
2022/09/21 04:00:39;;;;;;;144.98;7.97;;;5.30;99.90;;;;;;5066240;28;20025;-74
2022/09/21 04:03:05;;;;;;;53.10;5.40;;;5.30;99.90;;;;;;5067714;28;20391;-74
2022/09/21 04:05:31;;;;;;;158.48;8.40;;;5.50;99.90;;;;;;5067125;28;20504;-74
2022/09/21 04:07:56;;;;;;;42.83;5.85;;;5.50;99.90;;;;;;5072179;28;20096;-74
2022/09/21 04:10:25;;;;;;;88.55;10.05;;;5.60;99.90;;;;;;5062229;28;20017;-73
2022/09/21 04:12:55;;;;;;;131.45;7.18;;;5.30;99.90;;;;;;5073254;28;20052;-74
2022/09/21 04:15:22;;;;;;;56.40;6.00;;;5.20;99.90;;;;;;5064864;28;20108;-74
2022/09/21 04:17:50;;;;;;;255.70;12.88;;;5.30;99.90;;;;;;5065841;28;20120;-73
2022/09/21 04:20:16;;;;;;;152.60;8.77;;;5.10;99.90;;;;;;5053957;28;20044;-73
2022/09/21 04:22:42;;;;;;;133.18;10.15;;;5.20;99.90;;;;;;5066160;28;20021;-73
2022/09/21 04:25:09;;;;;;;49.50;6.35;;;4.90;99.90;;;;;;5061865;28;20110;-73
2022/09/21 04:27:35;;;;;;;113.18;8.50;;;4.90;99.90;;;;;;5057274;28;20103;-73
2022/09/21 04:30:01;;;;;;;70.55;9.75;;;4.90;99.90;;;;;;5063521;28;20526;-72
2022/09/21 04:32:26;;;;;;;62.05;5.97;;;4.80;99.90;;;;;;5057641;28;20025;-72
2022/09/21 04:34:52;;;;;;;155.82;10.48;;;4.90;99.90;;;;;;5062807;28;20072;-73
2022/09/21 04:37:17;;;;;;;146.65;8.32;;;5.00;99.90;;;;;;5059914;28;20491;-73
2022/09/21 04:39:43;;;;;;;162.20;10.43;;;5.00;99.90;;;;;;5064541;28;20027;-73
2022/09/21 04:42:09;;;;;;;87.18;7.30;;;5.10;99.90;;;;;;5067896;28;20028;-73
2022/09/21 04:44:35;;;;;;;87.20;5.88;;;5.10;99.90;;;;;;5073387;28;20032;-73
2022/09/21 04:47:00;;;;;;;114.82;11.73;;;4.90;99.90;;;;;;5059947;28;20025;-73
2022/09/21 04:49:26;;;;;;;80.43;6.30;;;5.00;99.90;;;;;;5064844;28;20059;-74
2022/09/21 04:51:52;;;;;;;73.28;7.65;;;5.00;99.90;;;;;;5066708;28;20033;-73
2022/09/21 04:54:17;;;;;;;98.30;9.18;;;5.10;99.90;;;;;;5061829;28;20032;-75
2022/09/21 04:56:43;;;;;;;104.13;8.90;;;5.10;99.90;;;;;;5059689;28;20035;-74
2022/09/21 04:59:08;;;;;;;65.80;7.32;;;5.20;99.90;;;;;;5064656;28;20021;-74
2022/09/21 05:01:34;;;;;;;46.83;4.55;;;5.30;99.90;;;;;;5066528;28;20040;-73
2022/09/21 05:04:02;;;;;;;178.07;9.35;;;5.20;99.90;;;;;;5065876;28;20414;-73
2022/09/21 05:06:29;;;;;;;83.25;8.82;;;5.10;99.90;;;;;;5064984;28;20082;-73
2022/09/21 05:11:39;;;;;;;166.25;8.45;;;5.00;99.90;;;;;;5070958;28;20031;-72
2022/09/21 05:14:05;;;;;;;176.52;10.90;;;4.90;99.90;;;;;;5069597;28;20111;-73
2022/09/21 05:16:31;;;;;;;240.23;11.50;;;4.90;99.90;;;;;;5059228;28;20031;-73
2022/09/21 05:18:57;;;;;;;68.75;6.32;;;4.70;99.90;;;;;;5058995;28;20021;-73
2022/09/21 05:21:23;;;;;;;78.28;7.45;;;4.70;99.90;;;;;;5065483;28;20047;-72
2022/09/21 05:23:48;;;;;;;127.15;8.45;;;4.80;99.90;;;;;;5056699;28;20120;-73
2022/09/21 05:26:14;;;;;;;154.43;9.23;;;4.70;99.90;;;;;;5065916;28;20108;-73
2022/09/21 05:28:40;;;;;;;186.00;9.52;;;4.60;99.90;;;;;;5064680;28;20082;-73
2022/09/21 05:31:39;;;;;;;81.13;6.13;;;4.40;99.90;;;;;;5053500;28;20021;-73
2022/09/21 05:34:26;;;;;;;168.20;9.32;;;4.60;99.90;;;;;;5052452;28;20013;-72
2022/09/21 05:37:00;;;;;;;161.43;9.48;;;4.60;99.90;;;;;;5065208;28;20505;-72
2022/09/21 05:39:27;;;;;;;166.23;8.52;;;4.70;99.90;;;;;;5072496;28;20055;-73
2022/09/21 05:41:52;;;;;;;153.35;9.05;;;4.60;99.90;;;;;;5072267;28;20017;-73
2022/09/21 05:44:20;;;;;;;361.48;16.35;;;4.50;99.90;;;;;;5065030;28;20032;-73
2022/09/21 05:46:54;;;;;;;406.08;19.58;;;4.50;99.90;;;;;;5060768;28;20028;-72
2022/09/21 05:50:01;;;;;;;268.33;15.52;;;4.10;99.90;;;;;;5067990;28;20028;-72
2022/09/21 05:52:46;;;;;;;268.38;12.98;;;4.30;99.90;;;;;;5070853;28;20032;-73
2022/09/21 05:55:39;;;;;;;140.75;9.07;;;4.40;99.90;;;;;;5068388;28;20471;-73
2022/09/21 05:58:19;;;;;;;128.07;7.82;;;4.50;99.90;;;;;;5065400;28;20497;-73
2022/09/21 06:01:05;;;;;;;553.22;26.10;;;4.50;99.90;;;;;;5051979;28;20027;-73
2022/09/21 06:03:33;;;;;;;39.40;4.77;;;4.30;99.90;;;;;;5069610;28;20020;-73
2022/09/21 06:05:59;;;;;;;287.98;12.20;;;4.40;99.90;;;;;;5054915;28;20358;-73
2022/09/21 06:08:25;;;;;;;212.85;10.52;;;4.70;99.90;;;;;;5064147;28;20451;-73
2022/09/21 06:10:52;;;;;;;287.80;14.10;;;4.80;99.90;;;;;;5053923;28;20021;-73
2022/09/21 06:13:17;;;;;;;214.32;11.77;;;4.70;99.90;;;;;;5051701;28;20017;-73
2022/09/21 06:15:43;;;;;;;417.88;20.65;;;4.60;99.90;;;;;;5063987;28;20027;-73
2022/09/21 06:18:09;;;;;;;378.77;20.83;;;4.80;99.90;;;;;;5062410;28;20021;-74
2022/09/21 06:20:35;;;;;;;113.40;7.10;;;4.80;99.90;;;;;;5058136;28;20063;-74
2022/09/21 06:23:08;;;;;;;583.00;24.38;;;4.90;99.90;;;;;;5063972;28;20060;-74
2022/09/21 06:25:34;;;;;;;361.52;16.77;;;4.90;99.90;;;;;;5064883;28;20039;-74
2022/09/21 06:28:07;;;;;;;130.98;7.47;;;4.90;99.90;;;;;;5065097;28;20403;-74
2022/09/21 06:30:33;;;;;;;350.08;14.27;;;4.90;99.90;;;;;;5063651;28;20020;-74
2022/09/21 06:33:04;;;;;;;359.23;21.00;;;4.90;99.90;;;;;;5057943;28;20017;-74
2022/09/21 06:35:30;;;;;;;210.55;10.60;;;4.80;99.90;;;;;;5056882;28;20075;-74
2022/09/21 06:38:04;;;;;;;282.83;19.40;;;4.90;99.90;;;;;;5061307;28;20119;-74
2022/09/21 06:40:30;;;;;;;389.02;16.83;;;5.30;99.90;;;;;;5064937;28;20483;-74
2022/09/21 06:43:01;;;;;;;435.30;22.77;;;5.40;99.90;;;;;;5059976;28;20036;-73
2022/09/21 06:45:28;;;;;;;644.28;26.40;;;5.30;99.90;;;;;;5057908;28;20036;-75
2022/09/21 06:47:54;;;;;;;371.83;16.98;;;4.90;99.90;;;;;;5060918;28;20064;-75
2022/09/21 06:50:20;;;;;;;164.43;8.32;;;5.10;99.90;;;;;;5054851;28;20032;-74
2022/09/21 06:52:46;;;;;;;89.35;6.30;;;5.20;99.90;;;;;;5071499;28;20100;-73
2022/09/21 06:55:13;;;;;;;308.15;13.05;;;5.30;99.90;;;;;;5068121;28;20163;-73
2022/09/21 06:57:39;;;;;;;313.80;13.73;;;5.40;99.90;;;;;;5061486;28;20386;-73
2022/09/21 07:00:07;;;;;;;101.80;7.68;;;5.50;99.90;;;;;;5056661;28;20029;-73
2022/09/21 07:02:33;;;;;;;458.40;19.40;;;5.70;99.90;;;;;;5071275;28;20024;-73
2022/09/21 07:04:59;;;;;;;141.40;8.98;;;5.70;99.90;;;;;;5069793;28;20021;-73
2022/09/21 07:07:25;;;;;;;127.60;7.97;;;5.80;99.90;;;;;;5071024;28;20448;-73
2022/09/21 07:09:51;;;;;;;93.57;7.07;;;6.10;99.90;;;;;;5053450;28;20079;-73
2022/09/21 07:12:17;;;;;;;351.10;16.15;;;6.30;99.90;;;;;;5061432;28;20028;-73
2022/09/21 07:14:45;;;;;;;247.52;17.92;;;6.00;99.90;;;;;;5057613;28;20430;-74
2022/09/21 07:17:13;;;;;;;301.98;14.40;;;5.80;99.90;;;;;;5059827;28;20025;-74
2022/09/21 07:19:39;;;;;;;63.58;6.43;;;5.90;99.90;;;;;;5049794;28;20028;-74
2022/09/21 07:22:04;;;;;;;51.90;7.43;;;6.10;99.90;;;;;;5050973;28;20036;-73
2022/09/21 07:24:30;;;;;;;447.48;22.08;;;6.40;99.90;;;;;;5049421;28;20032;-74
2022/09/21 07:26:56;;;;;;;310.73;18.55;;;6.30;99.90;;;;;;5049639;28;20021;-74
2022/09/21 07:29:22;;;;;;;50.60;5.55;;;5.90;99.90;;;;;;5069147;28;20035;-73
2022/09/21 07:31:47;;;;;;;499.08;20.08;;;6.00;99.90;;;;;;5071003;28;20024;-74
2022/09/21 07:34:13;;;;;;;239.32;15.10;;;5.90;99.90;;;;;;5066373;28;20101;-73
2022/09/21 07:36:39;;;;;;;419.48;22.45;;;5.80;99.90;;;;;;5050753;28;20025;-73
2022/09/21 07:39:04;;;;;;;168.45;13.57;;;5.90;99.90;;;;;;5050596;28;20060;-73
2022/09/21 07:41:30;;;;;;;211.05;13.70;;;5.90;99.90;;;;;;5051046;28;20017;-73
2022/09/21 07:43:55;;;;;;;191.98;17.35;;;6.10;99.90;;;;;;5050559;28;20071;-73
2022/09/21 07:46:21;;;;;;;158.75;14.18;;;5.90;99.90;;;;;;5053256;28;20110;-72
2022/09/21 07:48:46;;;;;;;126.35;13.13;;;5.90;99.90;;;;;;5053702;28;20418;-72
2022/09/21 07:51:14;;;;;;;336.65;22.65;;;6.10;99.90;;;;;;5054468;28;20029;-72
2022/09/21 07:53:43;;;;;;;190.13;13.27;;;6.00;99.90;;;;;;5054317;28;20025;-72
2022/09/21 07:56:12;;;;;;;221.40;18.10;;;6.20;99.90;;;;;;5066229;28;20374;-71
2022/09/21 08:01:23;;;;;;;151.05;13.55;;;6.70;99.90;;;;;;5060913;28;20059;-74
2022/09/21 08:03:53;;;;;;;117.05;12.05;;;6.70;99.90;;;;;;5065888;28;20104;-73
2022/09/21 08:06:20;;;;;;;102.53;12.30;;;6.80;99.90;;;;;;5073756;28;20359;-73
2022/09/21 08:08:49;;;;;;;146.40;12.35;;;6.90;99.90;;;;;;5065498;28;20067;-74
2022/09/21 08:11:21;;;;;;;273.35;21.15;;;6.80;99.90;;;;;;5066709;28;20074;-73
2022/09/21 08:13:47;;;;;;;255.38;19.17;;;6.80;99.90;;;;;;5063762;28;20103;-73
2022/09/21 08:16:13;;;;;;;489.08;25.10;;;6.50;99.90;;;;;;5059248;28;20035;-73
2022/09/21 08:18:40;;;;;;;334.95;19.42;;;6.40;99.90;;;;;;5064438;28;20037;-74
2022/09/21 08:21:06;;;;;;;171.98;13.00;;;6.80;99.90;;;;;;5067550;28;20116;-73
2022/09/21 08:26:02;;;;;;;270.13;24.55;;;7.10;99.90;;;;;;5052074;28;20037;-73
2022/09/21 08:28:29;;;;;;;301.38;17.52;;;7.10;99.90;;;;;;5053545;28;20013;-73
2022/09/21 08:31:01;;;;;;;323.30;23.95;;;7.20;99.90;;;;;;5050060;28;20029;-71
2022/09/21 08:33:27;;;;;;;150.65;16.23;;;7.20;99.90;;;;;;5044974;28;20421;-73
2022/09/21 08:35:54;;;;;;;88.97;15.10;;;7.20;99.90;;;;;;5053628;28;20032;-71
2022/09/21 08:38:20;;;;;;;107.15;11.32;;;7.40;99.90;;;;;;5053564;28;20047;-71
2022/09/21 08:40:46;;;;;;;167.93;15.52;;;7.60;99.90;;;;;;5053532;28;20037;-71
2022/09/21 08:43:18;;;;;;;22.15;7.50;;;7.90;99.90;;;;;;5049399;28;20025;-71
2022/09/21 08:45:45;;;;;;;90.03;11.50;;;8.20;99.90;;;;;;5049535;28;20037;-71
2022/09/21 08:48:27;;;;;;;72.05;13.02;;;8.00;99.90;;;;;;5027858;28;20386;-73
2022/09/21 08:50:56;;;;;;;73.68;14.43;;;8.00;99.90;;;;;;5053396;28;20025;-72
2022/09/21 08:53:29;;;;;;;220.48;23.35;;;7.60;99.90;;;;;;5053298;28;20021;-72
2022/09/21 08:55:56;;;;;;;94.32;14.40;;;7.60;99.90;;;;;;5053449;28;20056;-71
2022/09/21 08:58:26;;;;;;;141.20;20.00;;;7.50;99.90;;;;;;5053000;28;20031;-71
2022/09/21 09:01:18;;;;;;;75.38;15.27;;;7.70;99.90;;;;;;5053205;28;20406;-72
2022/09/21 09:04:21;;;;;;;182.30;19.52;;;7.50;99.90;;;;;;5053042;28;20028;-71
2022/09/21 09:07:06;;;;;;;69.85;15.20;;;7.60;99.90;;;;;;5047220;28;20402;-71
2022/09/21 09:10:09;;;;;;;130.73;17.58;;;7.90;99.90;;;;;;5053063;28;20394;-71
2022/09/21 09:12:56;;;;;;;27.20;11.05;;;7.90;99.90;;;;;;5052365;28;20025;-73
2022/09/21 09:15:33;;;;;;;34.50;17.17;;;8.30;99.90;;;;;;5052873;28;20021;-71
2022/09/21 09:18:03;;;;;;;45.47;14.80;;;8.30;99.90;;;;;;5052646;28;20017;-70
2022/09/21 09:20:39;;;;;;;29.92;14.82;;;8.30;99.90;;;;;;5052845;28;20709;-70
2022/09/21 09:23:25;;;;;;;15.05;12.07;;;8.50;99.90;;;;;;5052714;28;20024;-73
2022/09/21 09:25:57;;;;;;;39.45;13.48;;;8.50;99.90;;;;;;5049912;28;20206;-71
2022/09/21 09:28:45;;;;;;;29.20;13.52;;;8.50;99.90;;;;;;5042649;28;20024;-73
2022/09/21 09:31:23;;;;;;;28.58;14.90;;;8.60;99.90;;;;;;5052507;28;20756;-73
2022/09/21 09:33:49;;;;;;;41.40;17.50;;;8.60;99.90;;;;;;5052410;28;20057;-73
2022/09/21 09:36:15;;;;;;;22.10;16.05;;;8.70;99.90;;;;;;5052507;28;20057;-73
2022/09/21 09:39:07;;;;;;;32.67;17.23;;;8.80;99.90;;;;;;5052274;28;20530;-73
2022/09/21 09:41:57;;;;;;;22.42;13.93;;;8.80;99.90;;;;;;5052140;28;20036;-73
2022/09/21 09:44:39;;;;;;;18.23;15.82;;;9.10;99.90;;;;;;5040831;28;20478;-73
2022/09/21 09:47:43;;;;;;;16.55;14.80;;;9.20;99.90;;;;;;5052131;28;20104;-73
2022/09/21 09:50:39;;;;;;;17.48;15.63;;;9.20;99.90;;;;;;5052280;28;20115;-73
2022/09/21 09:53:21;;;;;;;14.95;13.10;;;9.10;99.90;;;;;;5035687;28;20035;-73
2022/09/21 09:55:57;;;;;;;14.55;13.15;;;9.30;99.90;;;;;;5049116;28;20025;-73
2022/09/21 09:58:43;;;;;;;16.17;14.02;;;9.50;99.90;;;;;;5051883;28;20025;-73
2022/09/21 10:01:40;;;;;;;14.48;13.02;;;9.40;99.90;;;;;;5039277;28;20594;-73
2022/09/21 10:04:10;;;;;;;14.85;13.35;;;9.40;99.90;;;;;;5042377;28;20044;-74
2022/09/21 10:06:37;;;;;;;16.25;13.02;;;9.60;99.90;;;;;;5065094;28;20024;-73
2022/09/21 10:09:29;;;;;;;13.85;12.35;;;9.50;99.90;;;;;;5051582;28;20104;-73
2022/09/21 10:12:02;;;;;;;14.20;12.60;;;9.80;99.90;;;;;;5043140;28;20032;-73
2022/09/21 10:14:33;;;;;;;12.60;11.25;;;9.80;99.90;;;;;;5023802;28;20068;-73
2022/09/21 10:17:06;;;;;;;15.98;13.68;;;9.80;99.90;;;;;;5051654;28;20663;-73
2022/09/21 10:19:32;;;;;;;13.68;12.15;;;9.60;99.90;;;;;;5051853;28;20083;-73
2022/09/21 10:22:03;;;;;;;13.40;12.10;;;9.50;99.90;;;;;;5051814;28;20063;-73
2022/09/21 10:24:33;;;;;;;13.35;11.95;;;10.00;99.90;;;;;;5051459;28;20036;-73
2022/09/21 10:27:13;;;;;;;12.13;10.98;;;9.70;99.90;;;;;;5051388;28;20028;-73
2022/09/21 10:29:47;;;;;;;14.50;13.00;;;10.30;99.90;;;;;;5033745;28;20116;-73
2022/09/21 10:32:20;;;;;;;13.35;11.57;;;10.20;99.90;;;;;;5051529;28;20108;-73
2022/09/21 10:35:04;;;;;;;14.90;13.40;;;10.20;99.90;;;;;;5033556;28;20033;-73
2022/09/21 10:37:36;;;;;;;16.40;13.25;;;10.10;99.90;;;;;;5051376;28;20067;-73
2022/09/21 10:40:03;;;;;;;16.90;13.88;;;9.80;99.90;;;;;;5033714;28;20394;-72
2022/09/21 10:42:35;;;;;;;13.32;11.98;;;9.80;99.90;;;;;;5051306;28;20032;-73
2022/09/21 10:45:15;;;;;;;13.98;12.57;;;10.20;99.90;;;;;;5050965;28;20112;-73
2022/09/21 10:47:51;;;;;;;13.13;11.90;;;10.50;99.90;;;;;;5051470;28;20024;-73
2022/09/21 10:50:22;;;;;;;;;;;10.70;99.90;;;;;;5038316;28;20025;-73
2022/09/21 10:52:50;;;;;;;12.18;10.75;;;11.10;99.90;;;;;;5051434;28;19905;-73
2022/09/21 10:55:21;;;;;;;11.15;10.05;;;11.20;99.90;;;;;;5051382;28;20368;-73
2022/09/21 10:57:48;;;;;;;9.73;8.80;;;11.70;99.90;;;;;;5039494;28;20022;-73
2022/09/21 11:00:23;;;;;;;10.88;9.88;;;11.70;99.90;;;;;;5049951;28;20475;-73
2022/09/21 11:02:49;;;;;;;11.13;10.07;;;11.60;99.90;;;;;;5033460;28;20028;-73
2022/09/21 11:05:21;;;;;;;12.05;10.85;;;10.90;99.90;;;;;;5057468;28;20024;-73
2022/09/21 11:07:52;;;;;;;13.10;10.63;;;10.80;99.90;;;;;;5037653;28;20032;-73
2022/09/21 11:10:26;;;;;;;11.32;10.23;;;11.00;99.90;;;;;;5039473;28;20048;-73
2022/09/21 11:13:16;;;;;;;11.60;10.40;;;11.20;99.90;;;;;;5044907;28;20013;-73
2022/09/21 11:16:11;;;;;;;10.77;9.68;;;11.30;99.90;;;;;;5049654;28;20393;-73
2022/09/21 11:18:56;;;;;;;10.93;9.60;;;11.50;99.90;;;;;;5046297;28;20043;-73
2022/09/21 11:21:42;;;;;;;11.25;9.90;;;11.40;99.90;;;;;;5054394;28;20032;-73
2022/09/21 11:24:26;;;;;;;9.05;8.02;;;11.30;99.90;;;;;;5053831;28;20421;-73
2022/09/21 11:27:07;;;;;;;9.65;7.72;;;11.40;99.90;;;;;;5058238;28;20139;-73
2022/09/21 11:29:46;;;;;;;10.00;7.75;;;11.40;99.90;;;;;;5040914;28;20056;-73
2022/09/21 11:32:25;;;;;;;7.50;6.75;;;11.70;99.90;;;;;;5048395;28;20082;-73
2022/09/21 11:35:08;;;;;;;8.00;7.20;;;11.70;99.90;;;;;;5052473;28;20074;-73
2022/09/21 11:37:46;;;;;;;7.90;7.15;;;11.90;99.90;;;;;;5052930;28;20474;-73
2022/09/21 11:40:37;;;;;;;7.22;6.53;;;11.80;99.90;;;;;;5053488;28;20398;-73
2022/09/21 11:43:12;;;;;;;5.72;5.18;;;11.80;99.90;;;;;;5053500;28;20051;-73
2022/09/21 11:45:59;;;;;;;7.82;5.53;;;12.30;99.90;;;;;;5054394;28;20024;-73
2022/09/21 11:49:05;;;;;;;5.78;5.10;;;12.90;99.90;;;;;;5056008;28;20080;-74
2022/09/21 11:52:03;;;;;;;5.22;4.57;;;13.40;99.90;;;;;;5054341;28;20532;-74
2022/09/21 11:55:00;;;;;;;5.07;4.43;;;13.70;99.90;;;;;;5054286;28;20494;-74
2022/09/21 11:57:49;;;;;;;4.80;4.15;;;14.40;99.90;;;;;;5053992;28;20771;-71
2022/09/21 12:00:23;;;;;;;4.45;4.05;;;15.70;99.90;;;;;;5054196;28;20017;-73
2022/09/21 12:02:56;;;;;;;5.20;4.68;;;16.10;99.90;;;;;;5054137;28;20024;-72
2022/09/21 12:05:36;;;;;;;3.72;3.42;;;16.80;99.90;;;;;;5061116;28;20104;-75
2022/09/21 12:08:50;;;;;;;4.82;3.78;;;17.20;99.90;;;;;;5055446;28;20025;-72
2022/09/21 12:11:27;;;;;;;5.68;3.30;;;17.30;99.90;;;;;;5023573;28;20390;-74
2022/09/21 12:14:11;;;;;;;5.10;3.53;;;18.00;99.90;;;;;;5053905;28;20486;-74
2022/09/21 12:17:09;;;;;;;6.22;3.47;;;18.10;99.90;;;;;;5053797;28;20036;-74
2022/09/21 12:19:49;;;;;;;3.45;2.95;;;18.40;99.90;;;;;;5053863;28;20033;-74
2022/09/21 12:22:26;;;;;;;3.05;2.75;;;17.90;99.90;;;;;;5053852;28;20036;-74
2022/09/21 12:25:02;;;;;;;2.92;2.72;;;18.00;99.90;;;;;;5053583;28;20021;-74
2022/09/21 12:27:41;;;;;;;4.40;2.95;;;18.60;99.90;;;;;;5053405;28;20036;-74
2022/09/21 12:30:16;;;;;;;5.03;2.80;;;18.20;99.90;;;;;;5053287;28;20037;-74
2022/09/21 12:32:58;;;;;;;3.13;2.88;;;19.20;99.90;;;;;;5040083;28;20017;-74
2022/09/21 12:35:43;;;;;;;3.65;2.90;;;18.90;99.90;;;;;;5053483;28;20029;-74
2022/09/21 12:38:16;;;;;;;5.22;2.85;;;18.70;99.90;;;;;;5053049;28;20073;-73
2022/09/21 12:40:54;;;;;;;2.53;2.28;;;19.10;99.90;;;;;;5035414;28;20029;-73
2022/09/21 12:43:40;;;;;;;3.00;2.70;;;19.00;99.90;;;;;;5053437;28;20049;-74
2022/09/21 12:46:18;;;;;;;;;;;18.50;99.90;;;;;;5053712;28;20711;-73
2022/09/21 12:48:44;;;;;;;5.18;2.70;;;20.00;99.90;;;;;;5053129;28;20404;-74
2022/09/21 12:51:15;;;;;;;4.00;2.25;;;20.50;99.90;;;;;;5035541;28;20034;-74
2022/09/21 12:53:47;;;;;;;3.85;2.30;;;19.60;99.90;;;;;;5053210;28;20068;-74
2022/09/21 12:56:36;;;;;;;5.10;2.40;;;20.10;99.90;;;;;;5053372;28;20047;-74
2022/09/21 12:59:20;;;;;;;3.78;1.80;;;21.10;99.90;;;;;;5035141;28;20021;-74
2022/09/21 13:01:52;;;;;;;2.17;1.70;;;20.90;99.90;;;;;;5035295;28;20426;-74
2022/09/21 13:04:55;;;;;;;2.85;1.90;;;22.20;99.90;;;;;;5052942;28;20067;-74
2022/09/21 13:07:54;;;;;;;2.92;1.70;;;21.90;99.90;;;;;;5043716;28;20498;-74
2022/09/21 13:10:56;;;;;;;2.53;1.50;;;21.70;99.90;;;;;;5053020;28;20394;-74
2022/09/21 13:13:31;;;;;;;3.22;1.70;;;21.90;99.90;;;;;;5052484;28;20087;-74
2022/09/21 13:15:58;;;;;;;2.10;1.88;;;22.10;99.90;;;;;;5052733;28;20075;-74